createdAt,value
2022-10-13T00:01:26.667Z,4.58
2022-10-13T00:06:33.637Z,4.58
2022-10-13T00:11:40.607Z,4.58
2022-10-13T00:16:47.448Z,4.60
2022-10-13T00:21:54.377Z,4.65
2022-10-13T00:27:01.628Z,4.69
2022-10-13T00:32:06.828Z,4.76
2022-10-13T00:37:14.028Z,4.86
2022-10-13T00:42:21.314Z,5.09
2022-10-13T00:47:30.295Z,5.19
2022-10-13T00:52:38.476Z,5.26
2022-10-13T00:57:48.656Z,5.33
2022-10-13T01:02:55.666Z,5.40
2022-10-13T01:08:03.847Z,5.47
2022-10-13T01:13:19.447Z,5.52
2022-10-13T01:18:35.408Z,5.58
2022-10-13T01:24:15.038Z,5.63
2022-10-13T01:29:49.318Z,5.72
2022-10-13T01:35:02.455Z,5.80
2022-10-13T01:40:18.304Z,5.86
2022-10-13T01:45:27.866Z,5.96
2022-10-13T01:50:37.332Z,6.03
2022-10-13T01:55:56.595Z,6.11
2022-10-13T02:01:14.986Z,6.17
2022-10-13T02:06:29.002Z,6.25
2022-10-13T02:11:35.989Z,6.23
2022-10-13T02:16:46.047Z,6.37
2022-10-13T02:21:54.265Z,6.44
2022-10-13T02:27:01.508Z,6.48
2022-10-13T02:32:09.616Z,6.52
2022-10-13T02:37:16.592Z,6.57
2022-10-13T02:42:23.937Z,6.60
2022-10-13T02:47:35.772Z,6.65
2022-10-13T02:52:44.169Z,6.68
2022-10-13T02:57:51.139Z,6.71
2022-10-13T03:02:58.300Z,6.74
2022-10-13T03:08:05.786Z,6.76
2022-10-13T03:13:12.768Z,6.79
2022-10-13T03:18:19.689Z,6.82
2022-10-13T03:23:28.576Z,6.85
2022-10-13T03:28:35.705Z,6.88
2022-10-13T03:33:43.616Z,6.90
2022-10-13T03:38:50.719Z,6.93
2022-10-13T03:43:57.875Z,6.94
2022-10-13T03:49:05.316Z,6.97
2022-10-13T03:54:14.588Z,6.98
2022-10-13T03:59:23.054Z,7.01
2022-10-13T04:04:30.356Z,7.03
2022-10-13T04:09:38.048Z,7.05
2022-10-13T04:14:45.208Z,7.08
2022-10-13T04:19:52.149Z,7.09
2022-10-13T04:24:59.070Z,7.10
2022-10-13T04:30:09.053Z,7.12
2022-10-13T04:35:18.150Z,7.14
2022-10-13T04:40:25.403Z,7.15
2022-10-13T04:45:33.069Z,7.16
2022-10-13T04:50:40.166Z,7.18
2022-10-13T04:55:47.296Z,7.19
2022-10-13T05:00:54.894Z,7.21
2022-10-13T05:06:02.344Z,7.22
2022-10-13T05:11:09.410Z,7.24
2022-10-13T05:16:19.195Z,7.25
2022-10-13T05:21:27.947Z,7.28
2022-10-13T05:26:37.214Z,7.30
2022-10-13T05:31:44.275Z,7.32
2022-10-13T05:36:51.348Z,7.35
2022-10-13T05:41:58.389Z,7.38
2022-10-13T05:47:07.694Z,7.41
2022-10-13T05:52:15.750Z,7.44
2022-10-13T05:57:26.071Z,7.48
2022-10-13T06:02:38.819Z,7.51
2022-10-13T06:07:47.421Z,7.56
2022-10-13T06:12:54.657Z,7.62
2022-10-13T06:18:01.725Z,7.67
2022-10-13T06:23:08.686Z,7.72
2022-10-13T06:28:16.487Z,7.78
2022-10-13T06:33:24.344Z,7.84
2022-10-13T06:38:31.780Z,7.91
2022-10-13T06:43:40.314Z,7.98
2022-10-13T06:48:52.916Z,8.07
2022-10-13T06:54:00.875Z,8.17
2022-10-13T06:59:08.607Z,8.25
2022-10-13T07:04:16.701Z,8.37
2022-10-13T07:09:24.023Z,8.48
2022-10-13T07:14:31.532Z,8.57
2022-10-13T07:19:38.629Z,8.68
2022-10-13T07:24:46.039Z,8.78
2022-10-13T07:29:53.479Z,8.89
2022-10-13T07:35:00.805Z,8.99
2022-10-13T07:40:09.862Z,9.10
2022-10-13T07:45:16.864Z,9.21
2022-10-13T07:50:24.028Z,9.32
2022-10-13T07:55:31.200Z,9.45
2022-10-13T08:00:38.703Z,9.57
2022-10-13T08:05:45.916Z,9.70
2022-10-13T08:16:05.823Z,9.96
2022-10-13T08:26:46.735Z,10.24
2022-10-13T08:31:54.286Z,10.38
2022-10-13T08:37:01.362Z,10.52
2022-10-13T08:42:18.885Z,10.66
2022-10-13T08:47:39.290Z,10.80
2022-10-13T08:52:58.839Z,10.94
2022-10-13T08:58:13.332Z,11.09
2022-10-13T09:03:29.176Z,11.22
2022-10-13T09:08:41.444Z,11.36
2022-10-13T09:13:49.024Z,11.48
2022-10-13T09:18:56.194Z,11.65
2022-10-13T09:24:14.331Z,11.78
2022-10-13T09:29:26.372Z,11.92
2022-10-13T09:34:33.513Z,12.07
2022-10-13T09:39:44.491Z,12.24
2022-10-13T09:44:59.149Z,12.40
2022-10-13T09:50:20.446Z,12.52
2022-10-13T09:55:34.358Z,12.65
2022-10-13T10:00:42.364Z,12.79
2022-10-13T10:05:56.057Z,12.89
2022-10-13T10:11:05.278Z,12.97
2022-10-13T10:16:20.288Z,13.06
2022-10-13T10:21:38.225Z,13.13
2022-10-13T10:26:54.932Z,13.22
2022-10-13T10:32:28.942Z,13.31
2022-10-13T10:37:52.734Z,13.40
2022-10-13T10:43:19.372Z,13.48
2022-10-13T10:48:30.342Z,13.48
2022-10-13T10:53:47.122Z,13.58
2022-10-13T10:59:03.373Z,13.64
2022-10-13T11:04:41.134Z,13.69
2022-10-13T11:10:21.682Z,13.75
2022-10-13T11:15:34.011Z,13.82
2022-10-13T11:21:02.001Z,13.88
2022-10-13T11:26:33.986Z,13.92
2022-10-13T11:31:56.200Z,13.97
2022-10-13T11:37:19.487Z,14.01
2022-10-13T11:42:58.323Z,14.03
2022-10-13T11:48:39.163Z,14.06
2022-10-13T11:53:56.303Z,14.08
2022-10-13T11:59:04.529Z,14.10
2022-10-13T12:04:22.613Z,14.12
2022-10-13T12:09:31.821Z,14.13
2022-10-13T12:14:44.409Z,14.15
2022-10-13T12:19:53.984Z,14.16
2022-10-13T12:25:06.962Z,14.17
2022-10-13T12:30:26.974Z,14.18
2022-10-13T12:35:35.667Z,14.17
2022-10-13T12:40:43.227Z,14.16
2022-10-13T12:45:50.889Z,14.17
2022-10-13T12:51:08.785Z,14.17
2022-10-13T12:56:30.183Z,14.20
2022-10-13T13:01:38.563Z,14.26
2022-10-13T13:06:56.879Z,14.32
2022-10-13T13:12:28.483Z,14.30
2022-10-13T13:17:57.276Z,14.28
2022-10-13T13:23:04.317Z,14.26
2022-10-13T13:28:15.426Z,14.25
2022-10-13T13:33:23.141Z,14.26
2022-10-13T13:38:30.408Z,14.30
2022-10-13T13:43:37.615Z,14.35
2022-10-13T13:48:44.764Z,14.38
2022-10-13T13:53:51.799Z,14.42
2022-10-13T13:58:58.959Z,14.42
2022-10-13T14:04:06.557Z,14.43
2022-10-13T14:09:13.938Z,14.42
2022-10-13T14:14:21.255Z,14.40
2022-10-13T14:19:28.403Z,14.38
2022-10-13T14:24:36.464Z,14.37
2022-10-13T14:29:45.268Z,14.36
2022-10-13T14:34:53.409Z,14.38
2022-10-13T14:40:00.931Z,14.39
2022-10-13T14:45:10.034Z,14.43
2022-10-13T14:50:17.370Z,14.47
2022-10-13T14:55:24.944Z,14.44
2022-10-13T15:00:32.000Z,14.35
2022-10-13T15:05:41.770Z,14.25
2022-10-13T15:10:48.667Z,14.15
2022-10-13T15:15:55.856Z,14.06
2022-10-13T15:21:02.894Z,13.97
2022-10-13T15:26:11.881Z,13.90
2022-10-13T15:31:20.302Z,13.82
2022-10-13T15:36:28.491Z,13.74
2022-10-13T15:41:35.724Z,13.67
2022-10-13T15:47:05.466Z,13.61
2022-10-13T15:52:09.748Z,13.51
2022-10-13T15:57:16.883Z,13.39
2022-10-13T16:02:24.524Z,13.27
2022-10-13T16:07:32.064Z,13.15
2022-10-13T16:12:39.284Z,13.05
2022-10-13T16:17:46.959Z,12.95
2022-10-13T16:22:54.702Z,12.82
2022-10-13T16:28:02.067Z,12.68
2022-10-13T16:33:09.311Z,12.51
2022-10-13T16:38:16.485Z,12.30
2022-10-13T16:43:23.501Z,12.06
2022-10-13T16:48:34.587Z,11.79
2022-10-13T16:53:41.591Z,11.53
2022-10-13T16:58:48.562Z,11.27
2022-10-13T17:03:56.592Z,11.00
2022-10-13T17:09:04.449Z,10.73
2022-10-13T17:14:12.146Z,10.49
2022-10-13T17:19:19.253Z,10.30
2022-10-13T17:24:26.340Z,10.18
2022-10-13T17:29:33.584Z,10.12
2022-10-13T17:34:40.971Z,10.08
2022-10-13T17:39:49.603Z,10.04
2022-10-13T17:44:56.502Z,10.00
2022-10-13T17:50:03.732Z,9.98
2022-10-13T17:55:12.619Z,9.96
2022-10-13T18:00:20.903Z,9.95
2022-10-13T18:05:28.005Z,9.94
2022-10-13T18:11:03.666Z,9.94
2022-10-13T18:16:11.253Z,9.91
2022-10-13T18:21:22.867Z,9.88
2022-10-13T18:26:35.254Z,9.83
2022-10-13T18:31:43.801Z,9.81
2022-10-13T18:36:54.287Z,9.78
2022-10-13T18:42:01.669Z,9.74
2022-10-13T18:47:14.108Z,9.73
2022-10-13T18:52:21.507Z,9.72
2022-10-13T18:57:28.703Z,9.69
2022-10-13T19:02:35.874Z,9.66
2022-10-13T19:07:43.002Z,9.64
2022-10-13T19:12:50.281Z,9.63
2022-10-13T19:18:00.025Z,9.62
2022-10-13T19:23:07.116Z,9.61
2022-10-13T19:28:14.723Z,9.57
2022-10-13T19:33:22.135Z,9.51
2022-10-13T19:38:29.458Z,9.43
2022-10-13T19:43:36.781Z,9.34
2022-10-13T19:48:45.099Z,9.24
2022-10-13T19:53:51.916Z,9.11
2022-10-13T19:58:59.726Z,8.97
2022-10-13T20:04:06.734Z,8.83
2022-10-13T20:09:16.139Z,8.69
2022-10-13T20:14:23.195Z,8.57
2022-10-13T20:19:30.391Z,8.50
2022-10-13T20:24:37.422Z,8.46
2022-10-13T20:29:44.315Z,8.43
2022-10-13T20:34:51.313Z,8.40
2022-10-13T20:39:58.876Z,8.38
2022-10-13T20:45:06.661Z,8.37
2022-10-13T20:50:16.715Z,8.36
2022-10-13T20:55:23.635Z,8.36
2022-10-13T21:00:30.995Z,8.35
2022-10-13T21:05:38.195Z,8.34
2022-10-13T21:10:46.257Z,8.33
2022-10-13T21:15:53.296Z,8.32
2022-10-13T21:21:06.063Z,8.30
2022-10-13T21:26:16.341Z,8.28
2022-10-13T21:31:28.269Z,8.27
2022-10-13T21:36:35.743Z,8.24
2022-10-13T21:41:43.208Z,8.20
2022-10-13T21:46:50.252Z,8.16
2022-10-13T21:51:57.262Z,8.12
2022-10-13T21:57:04.412Z,8.05
2022-10-13T22:02:11.491Z,7.96
2022-10-13T22:07:18.716Z,7.89
2022-10-13T22:12:26.619Z,7.85
2022-10-13T22:17:33.817Z,7.81
2022-10-13T22:22:41.174Z,7.76
2022-10-13T22:27:48.357Z,7.72
2022-10-13T22:32:55.506Z,7.69
2022-10-13T22:38:02.952Z,7.66
2022-10-13T22:43:10.288Z,7.63
2022-10-13T22:48:17.346Z,7.61
2022-10-13T22:53:24.460Z,7.60
2022-10-13T22:58:31.454Z,7.59
2022-10-13T23:03:39.043Z,7.57
2022-10-13T23:08:46.643Z,7.56
2022-10-13T23:13:54.035Z,7.54
2022-10-13T23:19:01.086Z,7.54
2022-10-13T23:24:12.455Z,7.53
2022-10-13T23:29:19.773Z,7.52
2022-10-13T23:34:28.474Z,7.50
2022-10-13T23:39:35.742Z,7.50
2022-10-13T23:44:43.140Z,7.48
2022-10-13T23:49:50.125Z,7.49
2022-10-13T23:54:57.232Z,7.49
